createdAt,value
2018-07-07T00:01:53.737Z,77.20
2018-07-07T00:04:29.300Z,77.50
2018-07-07T00:07:04.562Z,77.50
2018-07-07T00:09:39.953Z,77.70
2018-07-07T00:12:14.845Z,77.60
2018-07-07T00:17:24.678Z,77.40
2018-07-07T00:19:59.700Z,77.60
2018-07-07T00:25:13.930Z,77.90
2018-07-07T00:30:23.661Z,77.70
2018-07-07T00:32:58.610Z,77.10
2018-07-07T00:35:34.075Z,76.80
2018-07-07T00:38:08.994Z,76.50
2018-07-07T00:40:43.712Z,76.40
2018-07-07T00:43:18.661Z,76.70
2018-07-07T00:45:53.450Z,76.70
2018-07-07T00:48:29.047Z,76.50
2018-07-07T00:51:04.022Z,76.80
2018-07-07T00:53:38.935Z,76.90
2018-07-07T00:56:13.898Z,77.10
2018-07-07T01:01:23.291Z,77.50
2018-07-07T01:03:58.644Z,77.50
2018-07-07T01:06:34.235Z,77.20
2018-07-07T01:09:09.153Z,77.50
2018-07-07T01:11:44.180Z,77.40
2018-07-07T01:14:19.448Z,77.60
2018-07-07T01:16:54.459Z,77.30
2018-07-07T01:19:29.632Z,77.00
2018-07-07T01:22:06.795Z,77.00
2018-07-07T01:24:42.226Z,77.50
2018-07-07T01:27:17.480Z,76.90
2018-07-07T01:32:27.072Z,76.50
2018-07-07T01:35:01.911Z,76.50
2018-07-07T01:37:37.654Z,76.70
2018-07-07T01:40:12.814Z,76.90
2018-07-07T01:42:47.651Z,76.60
2018-07-07T01:45:22.400Z,77.30
2018-07-07T01:47:57.328Z,77.00
2018-07-07T01:50:32.216Z,77.20
2018-07-07T01:53:07.560Z,76.70
2018-07-07T01:55:42.721Z,76.70
2018-07-07T01:58:17.624Z,76.60
2018-07-07T02:00:52.984Z,76.50
2018-07-07T02:06:02.123Z,74.90
2018-07-07T02:08:37.540Z,73.80
2018-07-07T02:11:12.300Z,73.60
2018-07-07T02:13:47.593Z,72.70
2018-07-07T02:16:22.390Z,72.70
2018-07-07T02:18:57.294Z,72.20
2018-07-07T02:21:32.128Z,72.30
2018-07-07T02:24:07.264Z,71.50
2018-07-07T02:26:41.942Z,71.40
2018-07-07T02:29:16.896Z,71.20
2018-07-07T02:31:51.872Z,71.20
2018-07-07T02:34:27.300Z,71.30
2018-07-07T02:37:02.079Z,71.80
2018-07-07T02:39:37.183Z,72.30
2018-07-07T02:42:12.258Z,72.40
2018-07-07T02:44:47.083Z,72.70
2018-07-07T02:47:21.927Z,73.00
2018-07-07T02:55:06.249Z,73.20
2018-07-07T02:57:41.191Z,73.50
2018-07-07T03:00:16.135Z,73.90
2018-07-07T03:02:51.055Z,74.00
2018-07-07T03:05:26.168Z,74.00
2018-07-07T03:08:01.376Z,74.10
2018-07-07T03:10:36.744Z,72.80
2018-07-07T03:13:11.722Z,72.70
2018-07-07T03:15:46.827Z,73.10
2018-07-07T03:18:22.052Z,72.70
2018-07-07T03:23:31.528Z,73.00
2018-07-07T03:26:06.774Z,72.70
2018-07-07T03:28:41.781Z,72.80
2018-07-07T03:31:16.597Z,72.20
2018-07-07T03:36:26.271Z,71.50
2018-07-07T03:39:01.302Z,70.90
2018-07-07T03:41:36.170Z,70.90
2018-07-07T03:44:11.096Z,70.10
2018-07-07T03:46:46.098Z,70.10
2018-07-07T03:49:21.176Z,69.20
2018-07-07T03:51:56.341Z,69.80
2018-07-07T03:54:31.307Z,69.10
2018-07-07T03:57:06.803Z,68.90
2018-07-07T03:59:41.718Z,68.80
2018-07-07T04:02:16.987Z,69.30
2018-07-07T04:04:52.059Z,69.70
2018-07-07T04:07:27.107Z,69.70
2018-07-07T04:10:02.110Z,69.80
2018-07-07T04:12:36.882Z,70.20
2018-07-07T04:15:11.814Z,69.40
2018-07-07T04:17:47.234Z,69.50
2018-07-07T04:20:22.585Z,69.70
2018-07-07T04:22:57.467Z,69.30
2018-07-07T04:25:32.442Z,69.10
2018-07-07T04:28:07.710Z,69.00
2018-07-07T04:30:42.611Z,69.10
2018-07-07T04:33:17.827Z,69.00
2018-07-07T04:35:52.672Z,69.30
2018-07-07T04:38:27.829Z,69.50
2018-07-07T04:41:03.188Z,69.50
2018-07-07T04:43:38.424Z,69.30
2018-07-07T04:46:13.268Z,69.30
2018-07-07T04:48:48.394Z,69.10
2018-07-07T04:51:23.196Z,69.00
2018-07-07T04:53:58.463Z,69.20
2018-07-07T04:56:33.653Z,68.90
2018-07-07T04:59:09.411Z,68.60
2018-07-07T05:01:44.478Z,68.90
2018-07-07T05:04:19.634Z,68.90
2018-07-07T05:06:54.792Z,68.90
2018-07-07T05:09:30.663Z,68.80
2018-07-07T05:12:05.729Z,68.30
2018-07-07T05:14:40.598Z,68.20
2018-07-07T05:17:15.537Z,68.90
2018-07-07T05:19:51.772Z,68.30
2018-07-07T05:22:27.827Z,68.00
2018-07-07T05:25:02.960Z,68.50
2018-07-07T05:27:37.896Z,68.70
2018-07-07T05:30:12.674Z,68.10
2018-07-07T05:32:47.652Z,68.70
2018-07-07T05:35:22.790Z,67.90
2018-07-07T05:37:57.962Z,67.70
2018-07-07T05:40:33.244Z,67.00
2018-07-07T05:43:08.143Z,67.30
2018-07-07T05:45:42.880Z,66.90
2018-07-07T05:48:17.646Z,67.90
2018-07-07T05:50:53.194Z,67.60
2018-07-07T05:53:28.743Z,67.20
2018-07-07T05:56:03.935Z,67.70
2018-07-07T05:58:39.109Z,67.30
2018-07-07T06:01:14.341Z,67.70
2018-07-07T06:03:49.519Z,68.00
2018-07-07T06:06:24.458Z,67.80
2018-07-07T06:08:59.341Z,68.00
2018-07-07T06:11:34.437Z,68.20
2018-07-07T06:14:09.680Z,68.10
2018-07-07T06:16:45.264Z,68.20
2018-07-07T06:19:20.424Z,67.60
2018-07-07T06:21:55.594Z,67.90
2018-07-07T06:24:30.553Z,67.80
2018-07-07T06:27:06.435Z,67.80
2018-07-07T06:29:41.723Z,68.30
2018-07-07T06:32:17.030Z,68.30
2018-07-07T06:34:52.326Z,68.40
2018-07-07T06:37:27.243Z,68.70
2018-07-07T06:40:02.484Z,68.30
2018-07-07T06:42:37.539Z,66.90
2018-07-07T06:45:12.251Z,66.90
2018-07-07T06:47:47.108Z,67.50
2018-07-07T06:50:22.412Z,67.20
2018-07-07T06:52:57.482Z,66.10
2018-07-07T06:55:32.538Z,65.30
2018-07-07T06:58:07.334Z,64.90
2018-07-07T07:00:42.750Z,63.00
2018-07-07T07:03:17.872Z,63.00
2018-07-07T07:05:52.968Z,62.30
2018-07-07T07:08:28.043Z,63.40
2018-07-07T07:11:03.068Z,63.30
2018-07-07T07:13:38.649Z,62.50
2018-07-07T07:16:13.904Z,61.90
2018-07-07T07:18:49.459Z,60.80
2018-07-07T07:21:24.730Z,61.10
2018-07-07T07:24:00.130Z,60.60
2018-07-07T07:26:35.336Z,60.80
2018-07-07T07:31:45.417Z,61.90
2018-07-07T07:34:21.123Z,61.60
2018-07-07T07:36:56.021Z,61.50
2018-07-07T07:39:31.354Z,60.80
2018-07-07T07:42:01.046Z,61.00
2018-07-07T07:44:34.180Z,60.40
2018-07-07T07:47:03.642Z,60.70
2018-07-07T07:49:33.584Z,61.10
2018-07-07T07:52:03.589Z,60.50
2018-07-07T07:54:33.445Z,59.30
2018-07-07T07:57:03.482Z,58.60
2018-07-07T07:59:33.461Z,58.50
2018-07-07T08:02:09.574Z,58.40
2018-07-07T08:04:40.286Z,58.00
2018-07-07T08:07:09.720Z,57.70
2018-07-07T08:09:39.255Z,57.30
2018-07-07T08:14:37.679Z,58.30
2018-07-07T08:17:06.999Z,58.30
2018-07-07T08:19:36.994Z,57.20
2018-07-07T08:22:06.810Z,56.80
2018-07-07T08:24:36.965Z,56.10
2018-07-07T08:27:06.798Z,56.70
2018-07-07T08:29:35.987Z,55.80
2018-07-07T08:32:05.506Z,56.40
2018-07-07T08:34:35.223Z,56.30
2018-07-07T08:37:05.056Z,56.60
2018-07-07T08:39:34.672Z,55.50
2018-07-07T08:42:04.240Z,55.70
2018-07-07T08:44:33.982Z,55.80
2018-07-07T08:47:03.490Z,56.00
2018-07-07T08:49:33.531Z,55.80
2018-07-07T08:52:02.985Z,55.80
2018-07-07T08:54:33.722Z,55.70
2018-07-07T08:59:33.491Z,55.40
2018-07-07T09:02:03.080Z,55.50
2018-07-07T09:04:34.054Z,54.90
2018-07-07T09:07:03.527Z,54.50
2018-07-07T09:09:33.679Z,54.70
2018-07-07T09:12:02.976Z,54.90
2018-07-07T09:14:33.733Z,55.70
2018-07-07T09:17:03.039Z,54.90
2018-07-07T09:19:33.906Z,54.90
2018-07-07T09:22:03.613Z,54.80
2018-07-07T09:24:34.703Z,55.20
2018-07-07T09:27:04.107Z,53.50
2018-07-07T09:29:33.696Z,53.90
2018-07-07T09:32:03.374Z,53.60
2018-07-07T09:34:34.026Z,53.40
2018-07-07T09:37:03.956Z,53.80
2018-07-07T09:39:34.180Z,53.60
2018-07-07T09:42:03.615Z,52.80
2018-07-07T09:44:33.483Z,52.90
2018-07-07T09:49:33.596Z,53.30
2018-07-07T09:52:03.356Z,52.90
2018-07-07T09:54:38.470Z,53.70
2018-07-07T09:57:13.444Z,53.80
2018-07-07T09:59:48.922Z,53.60
2018-07-07T10:02:23.869Z,53.90
2018-07-07T10:04:58.784Z,53.60
2018-07-07T10:07:33.834Z,52.30
2018-07-07T10:10:09.085Z,52.60
2018-07-07T10:12:44.196Z,52.30
2018-07-07T10:15:19.446Z,52.00
2018-07-07T10:17:54.420Z,52.40
2018-07-07T10:20:29.685Z,52.50
2018-07-07T10:23:05.106Z,52.60
2018-07-07T10:28:15.153Z,53.00
2018-07-07T10:30:49.864Z,52.30
2018-07-07T10:33:25.316Z,52.30
2018-07-07T10:36:00.414Z,51.80
2018-07-07T10:38:35.559Z,51.60
2018-07-07T10:41:10.759Z,51.80
2018-07-07T10:43:46.017Z,51.70
2018-07-07T10:46:20.920Z,50.90
2018-07-07T10:48:56.240Z,51.50
2018-07-07T10:51:31.597Z,51.40
2018-07-07T10:54:07.016Z,52.10
2018-07-07T10:56:42.205Z,51.60
2018-07-07T10:59:17.171Z,51.50
2018-07-07T11:01:52.400Z,52.10
2018-07-07T11:04:27.939Z,51.20
2018-07-07T11:07:02.855Z,51.00
2018-07-07T11:09:37.846Z,51.30
2018-07-07T11:17:22.837Z,51.40
2018-07-07T11:19:57.788Z,51.60
2018-07-07T11:22:32.859Z,52.90
2018-07-07T11:25:07.906Z,51.90
2018-07-07T11:27:43.217Z,51.70
2018-07-07T11:30:18.317Z,51.60
2018-07-07T11:35:28.210Z,52.00
2018-07-07T11:38:03.479Z,51.80
2018-07-07T11:40:38.760Z,52.20
2018-07-07T11:43:14.147Z,52.00
2018-07-07T11:45:51.548Z,52.40
2018-07-07T11:48:26.487Z,52.30
2018-07-07T11:51:01.435Z,51.80
2018-07-07T11:53:36.316Z,52.20
2018-07-07T11:56:11.440Z,52.10
2018-07-07T11:58:46.598Z,51.40
2018-07-07T12:01:23.137Z,51.80
2018-07-07T12:03:58.364Z,52.00
2018-07-07T12:06:33.500Z,52.00
2018-07-07T12:11:43.822Z,52.50
2018-07-07T12:14:18.811Z,51.70
2018-07-07T12:16:54.326Z,52.60
2018-07-07T12:19:29.747Z,52.80
2018-07-07T12:22:05.619Z,51.60
2018-07-07T12:24:41.940Z,51.20
2018-07-07T12:27:17.241Z,52.10
2018-07-07T12:29:52.857Z,50.80
2018-07-07T12:32:28.325Z,51.10
2018-07-07T12:35:03.473Z,50.90
2018-07-07T12:37:38.506Z,50.40
2018-07-07T12:40:14.032Z,51.00
2018-07-07T12:42:49.164Z,50.40
2018-07-07T12:45:24.464Z,50.00
2018-07-07T12:53:09.404Z,49.70
2018-07-07T12:55:44.619Z,50.90
2018-07-07T12:58:27.309Z,50.50
2018-07-07T13:01:03.591Z,50.90
2018-07-07T13:03:38.636Z,49.90
2018-07-07T13:06:14.005Z,50.00
2018-07-07T13:08:49.337Z,49.80
2018-07-07T13:11:24.199Z,49.80
2018-07-07T13:13:54.150Z,50.20
2018-07-07T13:16:29.196Z,50.00
2018-07-07T13:19:04.153Z,50.70
2018-07-07T13:21:40.005Z,50.40
2018-07-07T13:24:15.537Z,50.30
2018-07-07T13:26:51.076Z,49.70
2018-07-07T13:29:26.373Z,50.00
2018-07-07T13:32:01.956Z,49.90
2018-07-07T13:34:37.072Z,50.30
2018-07-07T13:37:11.984Z,49.70
2018-07-07T13:39:46.855Z,50.10
2018-07-07T13:42:22.633Z,50.10
2018-07-07T13:44:52.214Z,50.50
2018-07-07T13:47:27.186Z,50.60
2018-07-07T13:50:02.423Z,49.70
2018-07-07T13:52:31.854Z,49.80
2018-07-07T13:55:07.005Z,48.90
2018-07-07T13:57:41.997Z,49.40
2018-07-07T14:00:16.996Z,49.40
2018-07-07T14:02:51.928Z,49.50
2018-07-07T14:05:27.222Z,49.10
2018-07-07T14:08:02.204Z,49.40
2018-07-07T14:10:37.384Z,49.20
2018-07-07T14:13:07.222Z,49.30
2018-07-07T14:15:42.440Z,50.00
2018-07-07T14:18:17.234Z,51.00
2018-07-07T14:20:52.337Z,49.40
2018-07-07T14:23:27.370Z,49.90
2018-07-07T14:26:02.446Z,49.60
2018-07-07T14:28:37.403Z,49.70
2018-07-07T14:33:41.324Z,49.60
2018-07-07T14:38:50.888Z,49.60
2018-07-07T14:41:25.871Z,49.50
2018-07-07T14:44:02.902Z,49.40
2018-07-07T14:46:38.068Z,49.50
2018-07-07T14:49:13.155Z,50.40
2018-07-07T14:51:48.344Z,49.70
2018-07-07T14:54:17.558Z,49.20
2018-07-07T14:56:52.864Z,49.80
2018-07-07T14:59:28.075Z,49.80
2018-07-07T15:02:03.188Z,50.20
2018-07-07T15:04:38.716Z,49.50
2018-07-07T15:07:13.685Z,50.00
2018-07-07T15:09:48.739Z,49.10
2018-07-07T15:12:23.678Z,49.90
2018-07-07T15:14:58.287Z,50.10
2018-07-07T15:17:33.523Z,49.40
2018-07-07T15:20:08.918Z,49.90
2018-07-07T15:25:18.558Z,48.80
2018-07-07T15:27:53.462Z,49.10
2018-07-07T15:30:28.508Z,49.20
2018-07-07T15:33:03.358Z,49.80
2018-07-07T15:35:38.194Z,48.80
2018-07-07T15:38:13.545Z,49.20
2018-07-07T15:40:48.734Z,48.70
2018-07-07T15:43:24.251Z,48.80
2018-07-07T15:45:59.367Z,48.80
2018-07-07T15:48:35.060Z,49.50
2018-07-07T15:51:10.039Z,48.90
2018-07-07T15:56:20.223Z,48.50
2018-07-07T15:58:55.582Z,47.90
2018-07-07T16:01:30.351Z,47.20
2018-07-07T16:04:05.802Z,47.90
2018-07-07T16:06:40.763Z,47.90
2018-07-07T16:09:15.768Z,48.30
2018-07-07T16:11:50.486Z,49.50
2018-07-07T16:14:25.768Z,48.60
2018-07-07T16:17:01.308Z,48.90
2018-07-07T16:19:36.821Z,49.60
2018-07-07T16:22:11.794Z,50.10
2018-07-07T16:24:46.676Z,49.80
2018-07-07T16:27:21.634Z,50.20
2018-07-07T16:29:56.700Z,50.20
2018-07-07T16:32:32.165Z,49.50
2018-07-07T16:35:07.129Z,49.70
2018-07-07T16:37:42.088Z,49.50
2018-07-07T16:40:17.585Z,49.90
2018-07-07T16:42:52.507Z,49.70
2018-07-07T16:45:27.503Z,49.80
2018-07-07T16:48:02.591Z,49.70
2018-07-07T16:50:37.832Z,49.40
2018-07-07T16:53:13.911Z,49.60
2018-07-07T16:55:48.977Z,49.30
2018-07-07T16:58:24.098Z,49.30
2018-07-07T17:00:59.763Z,49.10
2018-07-07T17:03:39.096Z,48.90
2018-07-07T17:06:14.738Z,49.40
2018-07-07T17:08:49.796Z,49.20
2018-07-07T17:11:24.918Z,49.90
2018-07-07T17:14:00.126Z,50.00
2018-07-07T17:19:10.668Z,50.40
2018-07-07T17:21:46.507Z,49.50
2018-07-07T17:24:22.064Z,49.60
2018-07-07T17:29:31.709Z,49.60
2018-07-07T17:32:08.805Z,50.00
2018-07-07T17:34:43.910Z,49.90
2018-07-07T17:37:19.385Z,49.90
2018-07-07T17:39:55.269Z,49.80
2018-07-07T17:42:31.891Z,50.00
2018-07-07T17:45:09.467Z,49.80
2018-07-07T17:47:45.479Z,49.70
2018-07-07T17:50:20.995Z,50.00
2018-07-07T17:52:56.576Z,50.40
2018-07-07T17:55:32.006Z,50.50
2018-07-07T17:58:08.114Z,50.40
2018-07-07T18:00:45.726Z,50.50
2018-07-07T18:03:21.516Z,50.40
2018-07-07T18:05:57.816Z,50.70
2018-07-07T18:08:33.875Z,50.40
2018-07-07T18:11:09.025Z,50.80
2018-07-07T18:13:52.695Z,50.80
2018-07-07T18:16:29.098Z,50.80
2018-07-07T18:19:04.531Z,50.70
2018-07-07T18:21:40.058Z,50.70
2018-07-07T18:24:20.242Z,50.60
2018-07-07T18:26:57.232Z,51.20
2018-07-07T18:29:36.813Z,50.90
2018-07-07T18:32:13.632Z,51.10
2018-07-07T18:34:54.174Z,51.40
2018-07-07T18:37:30.060Z,51.40
2018-07-07T18:40:06.921Z,51.60
2018-07-07T18:42:44.022Z,51.90
2018-07-07T18:45:19.562Z,52.00
2018-07-07T18:47:54.903Z,52.10
2018-07-07T18:50:35.434Z,52.60
2018-07-07T18:53:11.149Z,52.40
2018-07-07T18:55:47.329Z,52.50
2018-07-07T18:58:22.537Z,52.30
2018-07-07T19:00:58.904Z,52.00
2018-07-07T19:03:34.164Z,52.30
2018-07-07T19:06:10.469Z,52.20
2018-07-07T19:08:49.035Z,52.20
2018-07-07T19:11:24.231Z,52.30
2018-07-07T19:14:05.432Z,52.50
2018-07-07T19:16:40.624Z,52.40
2018-07-07T19:19:15.830Z,53.30
2018-07-07T19:21:56.270Z,52.80
2018-07-07T19:24:39.197Z,52.70
2018-07-07T19:27:16.486Z,53.00
2018-07-07T19:29:53.138Z,53.10
2018-07-07T19:32:34.909Z,53.50
2018-07-07T19:35:15.468Z,53.10
2018-07-07T19:40:25.123Z,53.50
2018-07-07T19:43:00.133Z,53.90
2018-07-07T19:45:35.290Z,54.20
2018-07-07T19:48:10.453Z,54.50
2018-07-07T19:50:45.376Z,54.80
2018-07-07T19:53:20.672Z,55.10
2018-07-07T19:55:55.586Z,55.40
2018-07-07T19:58:30.717Z,55.80
2018-07-07T20:01:06.097Z,56.30
2018-07-07T20:03:41.133Z,56.70
2018-07-07T20:06:16.063Z,56.90
2018-07-07T20:08:51.324Z,57.40
2018-07-07T20:11:26.740Z,57.60
2018-07-07T20:14:01.858Z,57.90
2018-07-07T20:16:48.382Z,58.30
2018-07-07T20:19:24.295Z,58.50
2018-07-07T20:22:03.540Z,58.70
2018-07-07T20:24:40.511Z,58.90
2018-07-07T20:27:20.972Z,59.10
2018-07-07T20:30:02.356Z,59.30
2018-07-07T20:32:55.041Z,59.50
2018-07-07T20:35:30.471Z,59.70
2018-07-07T20:38:05.500Z,60.10
2018-07-07T20:40:40.637Z,60.50
2018-07-07T20:43:15.717Z,60.60
2018-07-07T20:45:50.621Z,61.10
2018-07-07T20:48:26.273Z,61.30
2018-07-07T20:53:36.426Z,61.80
2018-07-07T20:56:12.538Z,62.10
2018-07-07T21:03:57.330Z,62.60
2018-07-07T21:06:33.358Z,63.00
2018-07-07T21:09:08.412Z,63.00
2018-07-07T21:11:43.720Z,63.40
2018-07-07T21:14:18.894Z,63.80
2018-07-07T21:16:54.136Z,63.80
2018-07-07T21:19:29.117Z,64.00
2018-07-07T21:22:04.119Z,64.10
2018-07-07T21:24:39.398Z,64.10
2018-07-07T21:27:16.300Z,64.30
2018-07-07T21:29:51.414Z,64.40
2018-07-07T21:32:26.480Z,64.40
2018-07-07T21:35:01.724Z,64.30
2018-07-07T21:40:09.159Z,64.30
2018-07-07T21:42:44.547Z,64.40
2018-07-07T21:45:19.622Z,64.60
2018-07-07T21:47:54.960Z,64.50
2018-07-07T21:50:30.319Z,64.90
2018-07-07T21:53:05.432Z,65.10
2018-07-07T21:55:40.703Z,65.20
2018-07-07T21:58:21.016Z,65.20
2018-07-07T22:01:12.575Z,65.50
2018-07-07T22:03:52.827Z,65.80
2018-07-07T22:06:33.089Z,66.30
2018-07-07T22:09:08.377Z,66.40
2018-07-07T22:11:43.324Z,66.70
2018-07-07T22:14:18.404Z,66.80
2018-07-07T22:16:53.923Z,67.10
2018-07-07T22:19:28.760Z,67.30
2018-07-07T22:22:08.311Z,67.80
2018-07-07T22:24:43.947Z,68.10
2018-07-07T22:27:15.720Z,68.50
2018-07-07T22:29:50.697Z,69.70
2018-07-07T22:32:26.190Z,69.60
2018-07-07T22:35:05.503Z,69.80
2018-07-07T22:37:40.771Z,70.10
2018-07-07T22:40:15.749Z,70.70
2018-07-07T22:45:26.079Z,71.60
2018-07-07T22:48:01.035Z,71.80
2018-07-07T22:50:35.993Z,72.20
2018-07-07T22:53:10.937Z,72.70
2018-07-07T22:55:45.931Z,73.10
2018-07-07T22:58:15.652Z,73.30
2018-07-07T23:00:50.502Z,73.60
2018-07-07T23:03:25.263Z,73.70
2018-07-07T23:06:00.261Z,74.00
2018-07-07T23:08:32.042Z,74.20
2018-07-07T23:11:07.529Z,74.20
2018-07-07T23:13:42.647Z,74.40
2018-07-07T23:16:17.994Z,74.60
2018-07-07T23:18:57.329Z,74.80
2018-07-07T23:21:32.816Z,74.80
2018-07-07T23:24:07.629Z,75.00
2018-07-07T23:26:42.573Z,75.50
2018-07-07T23:29:17.579Z,76.00
2018-07-07T23:31:52.807Z,76.50
2018-07-07T23:34:28.481Z,76.90
2018-07-07T23:37:04.586Z,77.20
2018-07-07T23:39:39.569Z,77.20
2018-07-07T23:42:14.754Z,77.40
2018-07-07T23:44:49.994Z,77.90
2018-07-07T23:47:25.514Z,78.00
2018-07-07T23:50:00.393Z,78.30
2018-07-07T23:52:33.405Z,78.60
2018-07-07T23:55:08.612Z,78.80
2018-07-07T23:57:44.178Z,79.30
